createdAt,value
2017-11-23T00:00:30.136Z,4.62
2017-11-23T00:01:30.114Z,4.66
2017-11-23T00:02:30.123Z,4.62
2017-11-23T00:03:30.085Z,4.73
2017-11-23T00:04:30.071Z,4.69
2017-11-23T00:05:30.080Z,4.6
2017-11-23T00:06:30.048Z,4.59
2017-11-23T00:07:30.055Z,4.6
2017-11-23T00:08:30.028Z,4.6
2017-11-23T00:09:29.745Z,4.62
2017-11-23T00:10:30.008Z,4.69
2017-11-23T00:11:29.990Z,4.6
2017-11-23T00:12:29.949Z,4.69
2017-11-23T00:13:29.947Z,4.69
2017-11-23T00:14:29.919Z,4.69
2017-11-23T00:15:29.952Z,4.63
2017-11-23T00:16:29.909Z,4.6
2017-11-23T00:17:29.907Z,4.62
2017-11-23T00:18:29.886Z,4.72
2017-11-23T00:19:29.877Z,4.69
2017-11-23T00:20:29.872Z,4.7
2017-11-23T00:21:29.572Z,4.6
2017-11-23T00:22:29.835Z,4.7
2017-11-23T00:23:29.579Z,4.67
2017-11-23T00:24:29.811Z,4.65
2017-11-23T00:25:29.798Z,4.66
2017-11-23T00:26:29.794Z,4.67
2017-11-23T00:27:29.760Z,4.66
2017-11-23T00:28:29.772Z,4.69
2017-11-23T00:29:29.738Z,4.66
2017-11-23T00:30:29.737Z,4.66
2017-11-23T00:31:29.195Z,4.7
2017-11-23T00:32:29.693Z,4.78
2017-11-23T00:33:29.678Z,4.7
2017-11-23T00:34:29.680Z,4.77
2017-11-23T00:35:29.653Z,4.7
2017-11-23T00:36:29.668Z,4.66
2017-11-23T00:37:29.635Z,4.52
2017-11-23T00:38:29.640Z,4.69
2017-11-23T00:39:29.619Z,4.58
2017-11-23T00:40:29.592Z,4.72
2017-11-23T00:41:29.315Z,4.63
2017-11-23T00:42:29.292Z,4.66
2017-11-23T00:43:29.533Z,4.69
2017-11-23T00:44:29.545Z,4.69
2017-11-23T00:45:29.267Z,4.65
2017-11-23T00:46:29.531Z,4.7
2017-11-23T00:47:29.240Z,4.7
2017-11-23T00:48:29.502Z,4.66
2017-11-23T00:49:29.461Z,4.7
2017-11-23T00:50:29.450Z,4.75
2017-11-23T00:51:29.175Z,4.66
2017-11-23T00:52:29.436Z,4.73
2017-11-23T00:53:29.432Z,4.65
2017-11-23T00:54:29.408Z,4.63
2017-11-23T00:55:29.484Z,4.72
2017-11-23T00:56:29.181Z,4.73
2017-11-23T00:57:29.458Z,4.66
2017-11-23T00:58:29.442Z,4.72
2017-11-23T00:59:29.163Z,4.63
2017-11-23T01:00:29.641Z,4.6
2017-11-23T01:01:29.406Z,4.6
2017-11-23T01:02:29.421Z,4.62
2017-11-23T01:03:29.377Z,4.63
2017-11-23T01:04:29.385Z,4.66
2017-11-23T01:05:29.559Z,4.66
2017-11-23T01:06:29.289Z,4.72
2017-11-23T01:07:29.239Z,4.67
2017-11-23T01:08:29.235Z,4.67
2017-11-23T01:09:29.204Z,4.7
2017-11-23T01:10:29.191Z,4.62
2017-11-23T01:11:28.930Z,4.69
2017-11-23T01:12:29.162Z,4.66
2017-11-23T01:13:29.163Z,4.62
2017-11-23T01:14:29.145Z,4.7
2017-11-23T01:15:28.865Z,4.66
2017-11-23T01:16:29.114Z,4.75
2017-11-23T01:17:29.103Z,4.62
2017-11-23T01:18:29.164Z,4.67
2017-11-23T01:19:29.091Z,4.62
2017-11-23T01:20:28.781Z,4.66
2017-11-23T01:21:29.046Z,4.66
2017-11-23T01:22:29.037Z,4.75
2017-11-23T01:23:29.026Z,4.73
2017-11-23T01:24:29.007Z,4.66
2017-11-23T01:25:28.994Z,4.73
2017-11-23T01:26:28.990Z,4.69
2017-11-23T01:27:28.988Z,4.7
2017-11-23T01:28:28.958Z,4.66
2017-11-23T01:29:28.956Z,4.67
2017-11-23T01:30:28.938Z,4.69
2017-11-23T01:31:28.664Z,4.75
2017-11-23T01:32:28.895Z,4.69
2017-11-23T01:33:28.896Z,4.88
2017-11-23T01:34:28.876Z,4.77
2017-11-23T01:35:28.895Z,4.77
2017-11-23T01:36:28.825Z,4.82
2017-11-23T01:37:28.846Z,4.78
2017-11-23T01:38:28.844Z,4.82
2017-11-23T01:39:28.813Z,4.85
2017-11-23T01:40:28.797Z,4.86
2017-11-23T01:41:28.785Z,4.77
2017-11-23T01:42:28.758Z,4.78
2017-11-23T01:43:28.744Z,4.86
2017-11-23T01:44:28.208Z,4.91
2017-11-23T01:45:28.734Z,4.88
2017-11-23T01:46:28.700Z,4.94
2017-11-23T01:47:28.448Z,4.96
2017-11-23T01:48:28.679Z,4.96
2017-11-23T01:49:28.686Z,4.96
2017-11-23T01:50:28.682Z,4.96
2017-11-23T01:51:28.664Z,4.96
2017-11-23T01:52:28.639Z,4.96
2017-11-23T01:53:28.633Z,5
2017-11-23T01:54:28.613Z,4.99
2017-11-23T01:55:28.598Z,4.96
2017-11-23T01:56:28.326Z,4.94
2017-11-23T01:57:28.575Z,4.91
2017-11-23T01:58:28.549Z,4.91
2017-11-23T01:59:28.559Z,4.92
2017-11-23T02:00:28.290Z,4.97
2017-11-23T02:01:28.261Z,4.96
2017-11-23T02:02:28.510Z,4.94
2017-11-23T02:03:28.496Z,4.96
2017-11-23T02:04:28.480Z,4.96
2017-11-23T02:05:28.481Z,4.97
2017-11-23T02:06:28.431Z,4.92
2017-11-23T02:07:28.436Z,4.96
2017-11-23T02:08:28.421Z,4.92
2017-11-23T02:09:28.420Z,4.92
2017-11-23T02:10:28.406Z,4.86
2017-11-23T02:11:28.401Z,4.89
2017-11-23T02:12:28.379Z,4.91
2017-11-23T02:13:28.346Z,4.88
2017-11-23T02:14:28.342Z,4.75
2017-11-23T02:15:28.080Z,4.91
2017-11-23T02:16:28.315Z,4.84
2017-11-23T02:17:28.302Z,4.84
2017-11-23T02:18:28.299Z,4.82
2017-11-23T02:19:28.298Z,4.77
2017-11-23T02:20:28.270Z,4.82
2017-11-23T02:21:28.258Z,4.84
2017-11-23T02:22:27.975Z,4.88
2017-11-23T02:23:28.242Z,4.77
2017-11-23T02:24:28.217Z,4.77
2017-11-23T02:25:28.214Z,4.77
2017-11-23T02:26:28.186Z,4.82
2017-11-23T02:27:28.200Z,4.82
2017-11-23T02:28:28.156Z,4.8
2017-11-23T02:29:28.160Z,4.84
2017-11-23T02:30:28.124Z,4.77
2017-11-23T02:31:28.137Z,4.84
2017-11-23T02:32:28.160Z,4.82
2017-11-23T02:33:28.101Z,4.8
2017-11-23T02:34:28.112Z,4.78
2017-11-23T02:35:27.809Z,4.8
2017-11-23T02:36:27.806Z,4.86
2017-11-23T02:37:28.035Z,4.8
2017-11-23T02:38:28.047Z,4.88
2017-11-23T02:39:28.017Z,4.91
2017-11-23T02:40:28.011Z,4.86
2017-11-23T02:41:27.994Z,4.92
2017-11-23T02:42:27.991Z,4.96
2017-11-23T02:43:27.703Z,4.96
2017-11-23T02:44:27.958Z,4.96
2017-11-23T02:45:27.940Z,4.99
2017-11-23T02:46:27.918Z,4.96
2017-11-23T02:47:27.927Z,4.94
2017-11-23T02:48:27.649Z,4.94
2017-11-23T02:49:27.891Z,4.97
2017-11-23T02:50:27.873Z,4.99
2017-11-23T02:51:27.842Z,4.97
2017-11-23T02:52:27.863Z,4.92
2017-11-23T02:53:27.837Z,4.94
2017-11-23T02:54:27.839Z,4.92
2017-11-23T02:55:27.804Z,4.97
2017-11-23T02:56:27.806Z,5.02
2017-11-23T02:57:27.768Z,4.94
2017-11-23T02:58:27.774Z,4.99
2017-11-23T02:59:27.749Z,4.92
2017-11-23T03:00:27.782Z,4.97
2017-11-23T03:01:27.722Z,4.96
2017-11-23T03:02:27.711Z,4.96
2017-11-23T03:03:27.700Z,4.96
2017-11-23T03:04:27.688Z,5
2017-11-23T03:05:27.694Z,4.94
2017-11-23T03:06:27.670Z,4.92
2017-11-23T03:07:27.657Z,4.96
2017-11-23T03:08:27.629Z,4.92
2017-11-23T03:09:27.631Z,4.97
2017-11-23T03:10:27.602Z,4.94
2017-11-23T03:11:27.606Z,4.94
2017-11-23T03:12:27.323Z,4.97
2017-11-23T03:13:27.558Z,5
2017-11-23T03:14:27.561Z,5
2017-11-23T03:15:27.545Z,4.97
2017-11-23T03:16:27.538Z,4.92
2017-11-23T03:17:27.526Z,5
2017-11-23T03:18:27.512Z,5.04
2017-11-23T03:19:27.487Z,4.97
2017-11-23T03:20:27.464Z,4.99
2017-11-23T03:21:27.467Z,5.03
2017-11-23T03:22:27.459Z,4.97
2017-11-23T03:23:27.446Z,4.99
2017-11-23T03:24:27.417Z,5.03
2017-11-23T03:25:27.435Z,4.94
2017-11-23T03:26:27.130Z,4.99
2017-11-23T03:27:27.397Z,4.96
2017-11-23T03:28:27.363Z,4.97
2017-11-23T03:29:27.371Z,4.97
2017-11-23T03:30:27.359Z,4.96
2017-11-23T03:31:27.329Z,4.97
2017-11-23T03:32:27.060Z,4.99
2017-11-23T03:33:27.303Z,4.97
2017-11-23T03:34:27.297Z,4.97
2017-11-23T03:35:27.020Z,4.89
2017-11-23T03:36:27.003Z,4.91
2017-11-23T03:37:27.250Z,4.91
2017-11-23T03:38:27.244Z,4.96
2017-11-23T03:39:27.239Z,4.96
2017-11-23T03:40:27.215Z,4.97
2017-11-23T03:41:27.208Z,4.96
2017-11-23T03:42:27.190Z,5
2017-11-23T03:43:27.199Z,4.96
2017-11-23T03:44:27.167Z,5.03
2017-11-23T03:45:27.155Z,5.02
2017-11-23T03:46:27.139Z,4.99
2017-11-23T03:47:27.133Z,4.97
2017-11-23T03:48:27.114Z,5.02
2017-11-23T03:49:27.098Z,4.96
2017-11-23T03:50:27.085Z,4.97
2017-11-23T03:51:27.080Z,5.02
2017-11-23T03:52:27.058Z,5
2017-11-23T03:53:27.040Z,4.91
2017-11-23T03:54:27.026Z,4.96
2017-11-23T03:55:27.019Z,4.94
2017-11-23T03:56:27.011Z,4.99
2017-11-23T03:57:27.001Z,4.97
2017-11-23T03:58:26.993Z,4.99
2017-11-23T03:59:26.967Z,5.02
2017-11-23T04:00:26.972Z,5.03
2017-11-23T04:01:26.935Z,4.92
2017-11-23T04:02:26.922Z,5.03
2017-11-23T04:03:26.917Z,5.02
2017-11-23T04:04:26.921Z,5.03
2017-11-23T04:05:26.903Z,5.02
2017-11-23T04:06:26.877Z,4.99
2017-11-23T04:07:26.876Z,4.91
2017-11-23T04:08:26.854Z,4.97
2017-11-23T04:09:26.824Z,4.97
2017-11-23T04:10:26.823Z,5.02
2017-11-23T04:11:26.807Z,4.96
2017-11-23T04:12:26.790Z,5.02
2017-11-23T04:13:26.778Z,4.94
2017-11-23T04:14:26.792Z,4.94
2017-11-23T04:15:26.750Z,4.89
2017-11-23T04:16:26.754Z,4.84
2017-11-23T04:17:26.724Z,4.86
2017-11-23T04:18:26.720Z,4.8
2017-11-23T04:19:26.702Z,4.85
2017-11-23T04:20:26.702Z,4.77
2017-11-23T04:21:26.683Z,4.77
2017-11-23T04:22:26.661Z,4.82
2017-11-23T04:23:26.634Z,4.84
2017-11-23T04:24:26.658Z,4.84
2017-11-23T04:25:26.627Z,4.86
2017-11-23T04:26:26.608Z,4.77
2017-11-23T04:27:26.612Z,4.91
2017-11-23T04:28:26.590Z,4.77
2017-11-23T04:29:26.556Z,4.82
2017-11-23T04:30:26.567Z,4.84
2017-11-23T04:31:26.542Z,4.78
2017-11-23T04:32:26.526Z,4.84
2017-11-23T04:33:26.509Z,4.84
2017-11-23T04:34:26.498Z,4.82
2017-11-23T04:35:26.482Z,4.77
2017-11-23T04:36:26.493Z,4.77
2017-11-23T04:37:26.493Z,4.73
2017-11-23T04:38:26.460Z,4.75
2017-11-23T04:39:26.448Z,4.77
2017-11-23T04:40:26.418Z,4.67
2017-11-23T04:41:26.404Z,4.72
2017-11-23T04:42:26.410Z,4.67
2017-11-23T04:43:26.135Z,4.7
2017-11-23T04:44:26.120Z,4.69
2017-11-23T04:45:26.374Z,4.67
2017-11-23T04:46:26.353Z,4.67
2017-11-23T04:47:26.331Z,4.66
2017-11-23T04:48:26.329Z,4.63
2017-11-23T04:49:26.309Z,4.75
2017-11-23T04:50:26.294Z,4.63
2017-11-23T04:51:26.294Z,4.65
2017-11-23T04:52:26.261Z,4.66
2017-11-23T04:53:26.260Z,4.66
2017-11-23T04:54:26.232Z,4.65
2017-11-23T04:55:26.232Z,4.63
2017-11-23T04:56:26.202Z,4.67
2017-11-23T04:57:26.207Z,4.58
2017-11-23T04:58:26.187Z,4.58
2017-11-23T04:59:26.186Z,4.52
2017-11-23T05:00:26.170Z,4.52
2017-11-23T05:01:26.159Z,4.48
2017-11-23T05:02:26.135Z,4.59
2017-11-23T05:03:25.868Z,4.6
2017-11-23T05:04:26.086Z,4.55
2017-11-23T05:05:26.099Z,4.54
2017-11-23T05:06:26.076Z,4.52
2017-11-23T05:07:26.055Z,4.58
2017-11-23T05:08:26.059Z,4.52
2017-11-23T05:09:26.039Z,4.55
2017-11-23T05:10:25.769Z,4.51
2017-11-23T05:11:25.998Z,4.47
2017-11-23T05:12:25.984Z,4.54
2017-11-23T05:13:26.002Z,4.52
2017-11-23T05:14:25.983Z,4.51
2017-11-23T05:15:25.976Z,4.5
2017-11-23T05:16:25.945Z,4.52
2017-11-23T05:17:25.942Z,4.51
2017-11-23T05:18:25.919Z,4.48
2017-11-23T05:19:25.642Z,4.48
2017-11-23T05:20:25.893Z,4.52
2017-11-23T05:21:25.876Z,4.5
2017-11-23T05:22:25.877Z,4.5
2017-11-23T05:23:25.835Z,4.55
2017-11-23T05:24:25.844Z,4.5
2017-11-23T05:25:25.829Z,4.47
2017-11-23T05:26:25.816Z,4.47
2017-11-23T05:27:25.800Z,4.51
2017-11-23T05:28:25.802Z,4.58
2017-11-23T05:29:25.775Z,4.47
2017-11-23T05:30:25.774Z,4.47
2017-11-23T05:31:25.774Z,4.54
2017-11-23T05:32:25.736Z,4.52
2017-11-23T05:33:25.723Z,4.48
2017-11-23T05:34:25.698Z,4.52
2017-11-23T05:35:25.700Z,4.52
2017-11-23T05:36:25.669Z,4.54
2017-11-23T05:37:25.663Z,4.58
2017-11-23T05:38:25.388Z,4.63
2017-11-23T05:39:25.634Z,4.54
2017-11-23T05:40:25.613Z,4.55
2017-11-23T05:41:25.609Z,4.48
2017-11-23T05:42:25.607Z,4.6
2017-11-23T05:43:25.584Z,4.65
2017-11-23T05:44:25.592Z,4.54
2017-11-23T05:45:25.564Z,4.59
2017-11-23T05:46:25.550Z,4.48
2017-11-23T05:47:25.529Z,4.58
2017-11-23T05:48:25.243Z,4.5
2017-11-23T05:49:25.514Z,4.6
2017-11-23T05:50:25.474Z,4.55
2017-11-23T05:51:25.476Z,4.62
2017-11-23T05:52:25.457Z,4.65
2017-11-23T05:53:25.465Z,4.62
2017-11-23T05:54:25.436Z,4.6
2017-11-23T05:55:25.161Z,4.62
2017-11-23T05:56:25.398Z,4.63
2017-11-23T05:57:25.397Z,4.62
2017-11-23T05:58:25.367Z,4.63
2017-11-23T05:59:25.371Z,4.66
2017-11-23T06:00:25.372Z,4.63
2017-11-23T06:01:25.332Z,4.62
2017-11-23T06:02:25.330Z,4.77
2017-11-23T06:03:25.290Z,4.67
2017-11-23T06:04:25.303Z,4.69
2017-11-23T06:05:25.267Z,4.66
2017-11-23T06:06:25.284Z,4.66
2017-11-23T06:07:25.260Z,4.59
2017-11-23T06:08:25.241Z,4.77
2017-11-23T06:09:25.244Z,4.8
2017-11-23T06:10:24.700Z,4.63
2017-11-23T06:11:25.208Z,4.67
2017-11-23T06:12:25.188Z,4.77
2017-11-23T06:13:25.170Z,4.8
2017-11-23T06:14:25.164Z,4.67
2017-11-23T06:15:25.148Z,4.84
2017-11-23T06:16:25.149Z,4.66
2017-11-23T06:17:24.859Z,4.78
2017-11-23T06:18:25.103Z,4.7
2017-11-23T06:19:25.082Z,4.82
2017-11-23T06:20:24.829Z,4.69
2017-11-23T06:21:25.072Z,4.69
2017-11-23T06:22:24.799Z,4.78
2017-11-23T06:23:25.037Z,4.7
2017-11-23T06:24:25.042Z,4.7
2017-11-23T06:25:25.037Z,4.8
2017-11-23T06:26:25.009Z,4.65
2017-11-23T06:27:24.996Z,4.67
2017-11-23T06:28:24.983Z,4.66
2017-11-23T06:29:24.974Z,4.77
2017-11-23T06:30:24.958Z,4.69
2017-11-23T06:31:24.920Z,4.7
2017-11-23T06:32:24.915Z,4.67
2017-11-23T06:33:24.922Z,4.69
2017-11-23T06:34:24.904Z,4.7
2017-11-23T06:35:24.889Z,4.66
2017-11-23T06:36:24.612Z,4.75
2017-11-23T06:37:24.860Z,4.66
2017-11-23T06:38:24.850Z,4.66
2017-11-23T06:39:24.835Z,4.67
2017-11-23T06:40:24.832Z,4.7
2017-11-23T06:41:24.806Z,4.7
2017-11-23T06:42:24.804Z,4.65
2017-11-23T06:43:24.784Z,4.66
2017-11-23T06:44:24.776Z,4.63
2017-11-23T06:45:24.766Z,4.72
2017-11-23T06:46:24.733Z,4.63
2017-11-23T06:47:24.743Z,4.66
2017-11-23T06:48:24.716Z,4.67
2017-11-23T06:49:24.717Z,4.69
2017-11-23T06:50:24.429Z,4.69
2017-11-23T06:51:24.674Z,4.67
2017-11-23T06:52:24.401Z,4.6
2017-11-23T06:53:24.416Z,4.67
2017-11-23T06:54:24.655Z,4.69
2017-11-23T06:55:24.601Z,4.69
2017-11-23T06:56:24.628Z,4.7
2017-11-23T06:57:24.595Z,4.66
2017-11-23T06:58:24.592Z,4.77
2017-11-23T06:59:25.007Z,4.82
2017-11-23T07:00:24.860Z,4.77
2017-11-23T07:01:24.542Z,4.85
2017-11-23T07:02:24.513Z,4.85
2017-11-23T07:03:24.549Z,4.91
2017-11-23T07:04:24.636Z,4.88
2017-11-23T07:05:24.500Z,4.92
2017-11-23T07:06:24.482Z,4.96
2017-11-23T07:07:24.207Z,4.94
2017-11-23T07:08:24.486Z,5.03
2017-11-23T07:09:24.172Z,5.02
2017-11-23T07:10:24.209Z,5.12
2017-11-23T07:11:24.424Z,5.2
2017-11-23T07:12:24.193Z,5.1
2017-11-23T07:13:24.380Z,5.18
2017-11-23T07:14:24.381Z,5.25
2017-11-23T07:15:24.109Z,5.27
2017-11-23T07:16:24.803Z,5.33
2017-11-23T07:17:24.354Z,5.35
2017-11-23T07:18:24.335Z,5.42
2017-11-23T07:19:24.310Z,5.39
2017-11-23T07:20:24.305Z,5.56
2017-11-23T07:21:24.289Z,5.54
2017-11-23T07:22:24.282Z,5.6
2017-11-23T07:23:24.371Z,5.67
2017-11-23T07:24:23.995Z,5.64
2017-11-23T07:25:24.254Z,5.74
2017-11-23T07:26:24.292Z,5.85
2017-11-23T07:27:24.253Z,5.85
2017-11-23T07:28:24.243Z,5.85
2017-11-23T07:29:24.167Z,5.89
2017-11-23T07:30:24.157Z,5.97
2017-11-23T07:31:24.145Z,6.06
2017-11-23T07:32:24.135Z,6.08
2017-11-23T07:33:24.128Z,6.14
2017-11-23T07:34:24.138Z,6.18
2017-11-23T07:35:24.075Z,6.18
2017-11-23T07:36:24.083Z,6.27
2017-11-23T07:37:24.116Z,6.38
2017-11-23T07:38:24.085Z,6.33
2017-11-23T07:39:24.064Z,6.46
2017-11-23T07:40:24.041Z,6.44
2017-11-23T07:41:24.025Z,6.52
2017-11-23T07:42:24.001Z,6.69
2017-11-23T07:43:24.001Z,6.62
2017-11-23T07:44:23.973Z,6.7
2017-11-23T07:45:23.984Z,6.71
2017-11-23T07:46:23.960Z,6.74
2017-11-23T07:47:23.695Z,6.85
2017-11-23T07:48:23.948Z,6.89
2017-11-23T07:49:23.932Z,6.94
2017-11-23T07:50:23.932Z,6.94
2017-11-23T07:51:23.900Z,7.06
2017-11-23T07:52:23.892Z,7.1
2017-11-23T07:53:23.885Z,7.1
2017-11-23T07:54:23.621Z,7.2
2017-11-23T07:55:23.875Z,7.23
2017-11-23T07:56:23.844Z,7.27
2017-11-23T07:57:23.860Z,7.27
2017-11-23T07:58:23.822Z,7.34
2017-11-23T07:59:23.574Z,7.27
2017-11-23T08:00:23.546Z,7.4
2017-11-23T08:01:23.802Z,7.45
2017-11-23T08:02:23.511Z,7.57
2017-11-23T08:03:23.784Z,7.46
2017-11-23T08:04:23.758Z,7.52
2017-11-23T08:05:23.734Z,7.53
2017-11-23T08:06:23.768Z,7.57
2017-11-23T08:07:23.762Z,7.64
2017-11-23T08:08:23.725Z,7.72
2017-11-23T08:09:23.742Z,7.77
2017-11-23T08:10:23.719Z,7.71
2017-11-23T08:11:23.722Z,7.75
2017-11-23T08:12:23.669Z,7.8
2017-11-23T08:13:23.438Z,7.8
2017-11-23T08:14:23.678Z,7.82
2017-11-23T08:15:23.626Z,7.86
2017-11-23T08:16:23.673Z,7.98
2017-11-23T08:17:23.660Z,8.01
2017-11-23T08:18:23.631Z,8.02
2017-11-23T08:19:23.630Z,8.04
2017-11-23T08:20:23.590Z,8.12
2017-11-23T08:21:23.598Z,8.02
2017-11-23T08:22:23.579Z,8.11
2017-11-23T08:23:23.561Z,8.11
2017-11-23T08:24:23.559Z,8.15
2017-11-23T08:25:23.564Z,8.22
2017-11-23T08:26:23.513Z,8.22
2017-11-23T08:27:23.492Z,8.33
2017-11-23T08:28:23.509Z,8.3
2017-11-23T08:29:23.219Z,8.34
2017-11-23T08:30:23.477Z,8.34
2017-11-23T08:31:23.494Z,8.34
2017-11-23T08:32:23.460Z,8.45
2017-11-23T08:33:23.469Z,8.44
2017-11-23T08:34:23.446Z,8.48
2017-11-23T08:35:23.434Z,8.59
2017-11-23T08:36:23.409Z,8.65
2017-11-23T08:37:23.393Z,8.65
2017-11-23T08:38:23.382Z,8.63
2017-11-23T08:39:23.403Z,8.71
2017-11-23T08:40:23.420Z,8.71
2017-11-23T08:41:23.341Z,8.79
2017-11-23T08:42:23.349Z,8.84
2017-11-23T08:43:23.357Z,8.91
2017-11-23T08:44:23.314Z,8.94
2017-11-23T08:45:23.337Z,8.96
2017-11-23T08:46:23.288Z,8.96
2017-11-23T08:47:23.329Z,9.05
2017-11-23T08:48:23.016Z,9.05
2017-11-23T08:49:23.307Z,9.08
2017-11-23T08:50:22.745Z,9.14
2017-11-23T08:51:23.298Z,9.23
2017-11-23T08:52:23.571Z,9.15
2017-11-23T08:53:23.249Z,9.14
2017-11-23T08:54:23.290Z,9.21
2017-11-23T08:55:23.238Z,9.26
2017-11-23T08:56:23.220Z,9.33
2017-11-23T08:57:23.301Z,9.32
2017-11-23T08:58:23.305Z,9.35
2017-11-23T08:59:23.300Z,9.35
2017-11-23T09:00:23.330Z,9.4
2017-11-23T09:01:23.327Z,9.36
2017-11-23T09:02:23.226Z,9.47
2017-11-23T09:03:23.212Z,9.39
2017-11-23T09:04:23.177Z,9.42
2017-11-23T09:05:23.182Z,9.47
2017-11-23T09:06:22.864Z,9.46
2017-11-23T09:07:23.191Z,9.46
2017-11-23T09:08:23.133Z,9.58
2017-11-23T09:09:23.122Z,9.56
2017-11-23T09:10:23.096Z,9.64
2017-11-23T09:11:23.109Z,9.6
2017-11-23T09:12:23.073Z,9.68
2017-11-23T09:13:23.085Z,9.69
2017-11-23T09:14:23.062Z,9.68
2017-11-23T09:15:23.591Z,9.76
2017-11-23T09:16:23.034Z,9.84
2017-11-23T09:17:23.393Z,9.84
2017-11-23T09:18:23.016Z,9.87
2017-11-23T09:19:23.242Z,9.91
2017-11-23T09:20:23.241Z,9.93
2017-11-23T09:21:22.968Z,9.97
2017-11-23T09:22:22.750Z,9.93
2017-11-23T09:23:22.970Z,10.01
2017-11-23T09:24:22.970Z,10.02
2017-11-23T09:25:23.010Z,10.08
2017-11-23T09:26:23.052Z,10.05
2017-11-23T09:27:22.999Z,10.22
2017-11-23T09:28:22.440Z,10.15
2017-11-23T09:29:22.932Z,10.25
2017-11-23T09:30:22.894Z,10.23
2017-11-23T09:31:22.889Z,10.23
2017-11-23T09:32:22.890Z,10.26
2017-11-23T09:33:22.863Z,10.34
2017-11-23T09:34:22.865Z,10.45
2017-11-23T09:35:22.849Z,10.47
2017-11-23T09:36:22.860Z,10.6
2017-11-23T09:37:22.840Z,10.53
2017-11-23T09:38:22.856Z,10.61
2017-11-23T09:39:22.527Z,10.68
2017-11-23T09:40:23.053Z,10.66
2017-11-23T09:41:22.534Z,10.78
2017-11-23T09:42:22.795Z,10.74
2017-11-23T09:43:22.771Z,10.84
2017-11-23T09:44:22.527Z,10.84
2017-11-23T09:45:22.778Z,10.89
2017-11-23T09:46:22.829Z,10.92
2017-11-23T09:47:22.478Z,10.92
2017-11-23T09:48:22.731Z,10.88
2017-11-23T09:49:22.731Z,11.04
2017-11-23T09:50:22.709Z,11.07
2017-11-23T09:51:22.736Z,11.06
2017-11-23T09:52:22.689Z,11.09
2017-11-23T09:53:22.693Z,11.11
2017-11-23T09:54:22.700Z,11.18
2017-11-23T09:55:22.692Z,11.19
2017-11-23T09:56:22.683Z,11.17
2017-11-23T09:57:22.398Z,11.22
2017-11-23T09:58:22.645Z,11.27
2017-11-23T09:59:22.644Z,11.27
2017-11-23T10:00:22.634Z,11.28
2017-11-23T10:01:22.617Z,11.24
2017-11-23T10:02:22.624Z,11.24
2017-11-23T10:03:22.648Z,11.27
2017-11-23T10:04:22.681Z,11.39
2017-11-23T10:05:22.599Z,11.29
2017-11-23T10:06:22.621Z,11.4
2017-11-23T10:07:22.572Z,11.46
2017-11-23T10:08:22.566Z,11.42
2017-11-23T10:09:22.576Z,11.44
2017-11-23T10:10:22.607Z,11.49
2017-11-23T10:11:22.524Z,11.54
2017-11-23T10:12:22.756Z,11.54
2017-11-23T10:13:22.511Z,11.55
2017-11-23T10:14:22.273Z,11.58
2017-11-23T10:15:22.536Z,11.57
2017-11-23T10:16:22.511Z,11.58
2017-11-23T10:17:22.535Z,11.55
2017-11-23T10:18:22.480Z,11.64
2017-11-23T10:19:22.475Z,11.64
2017-11-23T10:20:22.215Z,11.72
2017-11-23T10:21:22.452Z,11.76
2017-11-23T10:22:22.461Z,11.76
2017-11-23T10:23:22.477Z,11.75
2017-11-23T10:24:22.458Z,11.76
2017-11-23T10:25:22.476Z,11.75
2017-11-23T10:26:22.407Z,11.79
2017-11-23T10:27:22.464Z,11.91
2017-11-23T10:28:22.410Z,11.94
2017-11-23T10:29:22.401Z,11.9
2017-11-23T10:30:22.424Z,11.98
2017-11-23T10:31:22.141Z,11.95
2017-11-23T10:32:22.393Z,11.96
2017-11-23T10:33:22.866Z,12.04
2017-11-23T10:34:22.372Z,12.01
2017-11-23T10:35:22.340Z,11.99
2017-11-23T10:36:22.364Z,12.04
2017-11-23T10:37:22.093Z,12.14
2017-11-23T10:38:22.364Z,12.07
2017-11-23T10:39:22.061Z,12.01
2017-11-23T10:40:22.352Z,12.02
2017-11-23T10:41:22.376Z,12.14
2017-11-23T10:42:22.039Z,12.14
2017-11-23T10:43:22.369Z,12.12
2017-11-23T10:44:22.389Z,12.14
2017-11-23T10:45:22.376Z,12.16
2017-11-23T10:46:22.531Z,12.13
2017-11-23T10:47:22.531Z,12.16
2017-11-23T10:48:22.273Z,12.16
2017-11-23T10:49:22.331Z,12.16
2017-11-23T10:50:22.321Z,12.23
2017-11-23T10:51:22.347Z,12.23
2017-11-23T10:52:22.033Z,12.31
2017-11-23T10:53:21.977Z,12.29
2017-11-23T10:54:22.778Z,12.35
2017-11-23T10:55:22.280Z,12.32
2017-11-23T10:56:22.225Z,12.35
2017-11-23T10:57:22.271Z,12.46
2017-11-23T10:58:22.268Z,12.46
2017-11-23T10:59:22.415Z,12.46
2017-11-23T11:00:22.241Z,12.5
2017-11-23T11:01:22.184Z,12.53
2017-11-23T11:02:22.457Z,12.54
2017-11-23T11:03:21.872Z,12.52
2017-11-23T11:04:22.190Z,12.67
2017-11-23T11:05:22.230Z,12.64
2017-11-23T11:06:22.402Z,12.62
2017-11-23T11:07:22.191Z,12.7
2017-11-23T11:08:22.176Z,12.62
2017-11-23T11:09:21.896Z,12.68
2017-11-23T11:10:22.136Z,12.72
2017-11-23T11:11:22.161Z,12.87
2017-11-23T11:12:22.526Z,12.77
2017-11-23T11:13:22.174Z,12.72
2017-11-23T11:14:21.870Z,12.87
2017-11-23T11:15:22.100Z,12.78
2017-11-23T11:16:22.078Z,12.82
2017-11-23T11:17:21.787Z,12.93
2017-11-23T11:18:22.056Z,13.01
2017-11-23T11:19:22.022Z,13.01
2017-11-23T11:20:22.073Z,13.01
2017-11-23T11:21:22.044Z,13
2017-11-23T11:22:22.002Z,13.11
2017-11-23T11:23:22.067Z,13.12
2017-11-23T11:24:22.259Z,13.15
2017-11-23T11:25:21.730Z,13.11
2017-11-23T11:26:22.052Z,13.25
2017-11-23T11:27:21.994Z,13.19
2017-11-23T11:28:21.938Z,13.25
2017-11-23T11:29:21.965Z,13.28
2017-11-23T11:30:21.930Z,13.22
2017-11-23T11:31:21.684Z,13.3
2017-11-23T11:32:21.650Z,13.3
2017-11-23T11:33:21.914Z,13.45
2017-11-23T11:34:21.951Z,13.39
2017-11-23T11:35:21.921Z,13.42
2017-11-23T11:36:21.935Z,13.49
2017-11-23T11:37:21.892Z,13.54
2017-11-23T11:38:21.927Z,13.57
2017-11-23T11:39:21.926Z,13.59
2017-11-23T11:40:21.943Z,13.52
2017-11-23T11:41:21.849Z,13.64
2017-11-23T11:42:21.883Z,13.59
2017-11-23T11:43:21.883Z,13.67
2017-11-23T11:44:22.201Z,13.63
2017-11-23T11:45:21.915Z,13.75
2017-11-23T11:46:21.899Z,13.62
2017-11-23T11:47:21.896Z,13.69
2017-11-23T11:48:21.861Z,13.7
2017-11-23T11:49:21.860Z,13.71
2017-11-23T11:50:21.815Z,13.75
2017-11-23T11:51:21.796Z,13.87
2017-11-23T11:52:21.800Z,13.71
2017-11-23T11:53:21.510Z,13.84
2017-11-23T11:54:21.785Z,13.95
2017-11-23T11:55:21.776Z,13.87
2017-11-23T11:56:21.750Z,13.89
2017-11-23T11:57:21.754Z,13.87
2017-11-23T11:58:21.736Z,13.89
2017-11-23T11:59:21.754Z,13.99
2017-11-23T12:00:21.733Z,13.89
2017-11-23T12:01:21.722Z,14.03
2017-11-23T12:02:21.443Z,14.03
2017-11-23T12:03:21.731Z,13.96
2017-11-23T12:04:21.693Z,13.97
2017-11-23T12:05:21.705Z,14.07
2017-11-23T12:06:21.433Z,13.96
2017-11-23T12:07:21.709Z,13.99
2017-11-23T12:08:21.698Z,14.09
2017-11-23T12:09:21.702Z,14.1
2017-11-23T12:10:21.691Z,14.1
2017-11-23T12:11:21.404Z,14.12
2017-11-23T12:12:21.645Z,14.12
2017-11-23T12:13:21.659Z,14
2017-11-23T12:14:21.407Z,14.04
2017-11-23T12:15:21.395Z,14.06
2017-11-23T12:16:21.412Z,14.07
2017-11-23T12:17:21.662Z,14.1
2017-11-23T12:18:21.664Z,14.02
2017-11-23T12:19:22.141Z,14.03
2017-11-23T12:20:21.648Z,14
2017-11-23T12:21:21.639Z,13.99
2017-11-23T12:22:21.605Z,14
2017-11-23T12:23:21.654Z,14.04
2017-11-23T12:24:21.597Z,14.06
2017-11-23T12:25:21.564Z,13.97
2017-11-23T12:26:21.556Z,14.03
2017-11-23T12:27:21.588Z,14.03
2017-11-23T12:28:21.304Z,13.99
2017-11-23T12:29:21.681Z,14.09
2017-11-23T12:30:21.603Z,14.04
2017-11-23T12:31:21.544Z,14.04
2017-11-23T12:32:21.580Z,13.99
2017-11-23T12:33:21.504Z,14.12
2017-11-23T12:34:21.563Z,14.09
2017-11-23T12:35:21.547Z,14.04
2017-11-23T12:36:21.512Z,13.99
2017-11-23T12:37:21.510Z,14.07
2017-11-23T12:38:21.485Z,14.09
2017-11-23T12:39:21.808Z,14.12
2017-11-23T12:40:21.534Z,14.14
2017-11-23T12:41:21.537Z,14.12
2017-11-23T12:42:21.479Z,14.06
2017-11-23T12:43:21.462Z,14.07
2017-11-23T12:44:21.452Z,14.02
2017-11-23T12:45:21.461Z,14.06
2017-11-23T12:46:21.438Z,14.07
2017-11-23T12:47:21.175Z,14
2017-11-23T12:48:21.442Z,14.06
2017-11-23T12:49:21.473Z,14.09
2017-11-23T12:50:21.428Z,14.04
2017-11-23T12:51:21.414Z,14
2017-11-23T12:52:21.431Z,14
2017-11-23T12:53:21.429Z,14.03
2017-11-23T12:54:21.405Z,14.03
2017-11-23T12:55:21.383Z,14.03
2017-11-23T12:56:21.382Z,13.99
2017-11-23T12:57:21.390Z,13.84
2017-11-23T12:58:21.364Z,13.92
2017-11-23T12:59:21.337Z,13.88
2017-11-23T13:00:21.342Z,13.87
2017-11-23T13:01:21.344Z,13.85
2017-11-23T13:02:21.360Z,13.85
2017-11-23T13:03:21.338Z,13.84
2017-11-23T13:04:21.333Z,13.71
2017-11-23T13:05:21.304Z,13.88
2017-11-23T13:06:21.377Z,13.78
2017-11-23T13:07:21.315Z,13.78
2017-11-23T13:08:21.295Z,13.78
2017-11-23T13:09:21.313Z,13.75
2017-11-23T13:10:21.292Z,13.75
2017-11-23T13:11:21.001Z,13.78
2017-11-23T13:12:21.338Z,13.75
2017-11-23T13:13:21.275Z,13.79
2017-11-23T13:14:21.262Z,13.73